TNCM/SXM METAR and TAF weather

Enter ICAO airport designator
Station Type Date Time Source
TNCM METAR 2020/09/22 17:00 UTC NOAA

TNCM 221700Z VRB03KT 9999 FEW019 FEW///CB 33/25 Q1014 NOSIG RMK CB S SW W NE NW


Station Type Date Time Source
TNCM Decoded METAR 2020/09/22 17:00 UTC NOAA

Juliana Airport, Saint Maarten, Netherlands Antilles (TNCM) 18-03N 063-07W 9M
Sep 22, 2020 - 01:00 PM EDT / 2020.09.22 1700 UTC
Wind: Variable at 3 MPH (3 KT):0
Visibility: greater than 7 mile(s):0
Sky conditions: mostly clear
Weather: Cumulonimbus clouds observed
Temperature: 91 F (33 C)
Heat index: 103.5 F (39.7 C):1
Dew Point: 77 F (25 C)
Relative Humidity: 62%
Pressure (altimeter): 29.94 in. Hg (1014 hPa)
ob: TNCM 221700Z VRB03KT 9999 FEW019 FEW///CB 33/25 Q1014 NOSIG RMK CB S SW W NE NW
cycle: 17

Station Type Date Time Source
TNCM TAF 2020/09/22 12:51 UTC NOAA

TAF TNCM 221140Z 2212/2312 VRB05KT P6SM VCSH FEW018 SCT045
FM222300 VRB06KT P6SM FEW018

Example: see airport list